sensor_id;sensor_type;location;lat;lon;timestamp;P1;durP1;ratioP1;P2;durP2;ratioP2
43807;SDS011;29438;50.664;10.098;2023-03-23T00:02:37;2.08;;;0.38;;
43807;SDS011;29438;50.664;10.098;2023-03-23T00:05:03;1.17;;;0.20;;
43807;SDS011;29438;50.664;10.098;2023-03-23T00:07:31;1.02;;;0.25;;
43807;SDS011;29438;50.664;10.098;2023-03-23T00:09:57;1.33;;;0.20;;
43807;SDS011;29438;50.664;10.098;2023-03-23T00:12:24;0.70;;;0.10;;
43807;SDS011;29438;50.664;10.098;2023-03-23T00:15:06;1.90;;;0.20;;
43807;SDS011;29438;50.664;10.098;2023-03-23T00:17:33;1.27;;;0.20;;
43807;SDS011;29438;50.664;10.098;2023-03-23T00:20:00;0.77;;;0.30;;
43807;SDS011;29438;50.664;10.098;2023-03-23T00:22:29;1.40;;;0.20;;
43807;SDS011;29438;50.664;10.098;2023-03-23T00:24:55;0.98;;;0.20;;
43807;SDS011;29438;50.664;10.098;2023-03-23T00:27:21;5.28;;;0.30;;
43807;SDS011;29438;50.664;10.098;2023-03-23T00:29:48;1.00;;;0.20;;
43807;SDS011;29438;50.664;10.098;2023-03-23T00:32:17;1.08;;;0.17;;
43807;SDS011;29438;50.664;10.098;2023-03-23T00:34:45;1.38;;;0.10;;
43807;SDS011;29438;50.664;10.098;2023-03-23T00:37:13;1.30;;;0.28;;
43807;SDS011;29438;50.664;10.098;2023-03-23T00:39:41;1.38;;;0.22;;
43807;SDS011;29438;50.664;10.098;2023-03-23T00:42:09;2.88;;;0.30;;
43807;SDS011;29438;50.664;10.098;2023-03-23T00:44:35;1.55;;;0.25;;
43807;SDS011;29438;50.664;10.098;2023-03-23T00:47:01;1.67;;;0.30;;
43807;SDS011;29438;50.664;10.098;2023-03-23T00:49:27;1.05;;;0.20;;
43807;SDS011;29438;50.664;10.098;2023-03-23T00:51:54;1.20;;;0.20;;
43807;SDS011;29438;50.664;10.098;2023-03-23T00:54:21;1.20;;;0.20;;
43807;SDS011;29438;50.664;10.098;2023-03-23T00:56:47;1.58;;;0.20;;
43807;SDS011;29438;50.664;10.098;2023-03-23T00:59:13;1.52;;;0.30;;
43807;SDS011;29438;50.664;10.098;2023-03-23T01:01:39;2.10;;;0.22;;
43807;SDS011;29438;50.664;10.098;2023-03-23T01:04:05;0.82;;;0.20;;
43807;SDS011;29438;50.664;10.098;2023-03-23T01:06:31;2.00;;;0.30;;
43807;SDS011;29438;50.664;10.098;2023-03-23T01:09:00;0.88;;;0.20;;
43807;SDS011;29438;50.664;10.098;2023-03-23T01:11:28;1.52;;;0.20;;
43807;SDS011;29438;50.664;10.098;2023-03-23T01:13:54;2.28;;;0.30;;
43807;SDS011;29438;50.664;10.098;2023-03-23T01:16:20;1.55;;;0.47;;
43807;SDS011;29438;50.664;10.098;2023-03-23T01:18:46;1.02;;;0.20;;
43807;SDS011;29438;50.664;10.098;2023-03-23T01:21:12;1.35;;;0.30;;
43807;SDS011;29438;50.664;10.098;2023-03-23T01:23:40;1.25;;;0.30;;
43807;SDS011;29438;50.664;10.098;2023-03-23T01:26:06;0.80;;;0.20;;
43807;SDS011;29438;50.664;10.098;2023-03-23T01:28:34;1.08;;;0.20;;
43807;SDS011;29438;50.664;10.098;2023-03-23T01:31:01;1.20;;;0.20;;
43807;SDS011;29438;50.664;10.098;2023-03-23T01:33:32;2.72;;;0.30;;
43807;SDS011;29438;50.664;10.098;2023-03-23T01:35:58;0.95;;;0.20;;
43807;SDS011;29438;50.664;10.098;2023-03-23T01:38:27;0.80;;;0.10;;
43807;SDS011;29438;50.664;10.098;2023-03-23T01:40:52;1.05;;;0.20;;
43807;SDS011;29438;50.664;10.098;2023-03-23T01:43:18;1.00;;;0.20;;
43807;SDS011;29438;50.664;10.098;2023-03-23T01:45:43;1.25;;;0.20;;
43807;SDS011;29438;50.664;10.098;2023-03-23T01:50:58;1.67;;;0.30;;
43807;SDS011;29438;50.664;10.098;2023-03-23T01:53:32;1.77;;;0.22;;
43807;SDS011;29438;50.664;10.098;2023-03-23T01:56:02;0.77;;;0.20;;
43807;SDS011;29438;50.664;10.098;2023-03-23T01:58:30;1.05;;;0.30;;
43807;SDS011;29438;50.664;10.098;2023-03-23T02:01:00;3.13;;;0.40;;
43807;SDS011;29438;50.664;10.098;2023-03-23T02:03:29;1.77;;;0.20;;
43807;SDS011;29438;50.664;10.098;2023-03-23T02:05:56;1.95;;;0.28;;
43807;SDS011;29438;50.664;10.098;2023-03-23T02:08:26;1.45;;;0.20;;
43807;SDS011;29438;50.664;10.098;2023-03-23T02:10:53;0.75;;;0.30;;
43807;SDS011;29438;50.664;10.098;2023-03-23T02:13:19;0.93;;;0.20;;
43807;SDS011;29438;50.664;10.098;2023-03-23T02:15:47;1.05;;;0.20;;
43807;SDS011;29438;50.664;10.098;2023-03-23T02:21:25;1.27;;;0.20;;
43807;SDS011;29438;50.664;10.098;2023-03-23T02:26:56;0.70;;;0.10;;
43807;SDS011;29438;50.664;10.098;2023-03-23T02:29:34;1.30;;;0.30;;
43807;SDS011;29438;50.664;10.098;2023-03-23T02:32:37;0.93;;;0.10;;
43807;SDS011;29438;50.664;10.098;2023-03-23T02:35:34;0.80;;;0.30;;
43807;SDS011;29438;50.664;10.098;2023-03-23T02:38:06;1.10;;;0.20;;
43807;SDS011;29438;50.664;10.098;2023-03-23T02:40:39;1.13;;;0.30;;
43807;SDS011;29438;50.664;10.098;2023-03-23T02:43:09;1.02;;;0.20;;
43807;SDS011;29438;50.664;10.098;2023-03-23T02:45:37;1.33;;;0.25;;
43807;SDS011;29438;50.664;10.098;2023-03-23T02:48:05;1.67;;;0.20;;
43807;SDS011;29438;50.664;10.098;2023-03-23T02:50:32;0.88;;;0.20;;
43807;SDS011;29438;50.664;10.098;2023-03-23T02:52:58;1.13;;;0.20;;
43807;SDS011;29438;50.664;10.098;2023-03-23T02:55:26;2.75;;;0.25;;
43807;SDS011;29438;50.664;10.098;2023-03-23T02:57:53;1.67;;;0.30;;
43807;SDS011;29438;50.664;10.098;2023-03-23T03:00:20;1.58;;;0.20;;
43807;SDS011;29438;50.664;10.098;2023-03-23T03:02:47;0.50;;;0.17;;
43807;SDS011;29438;50.664;10.098;2023-03-23T03:10:40;1.33;;;0.20;;
43807;SDS011;29438;50.664;10.098;2023-03-23T03:13:14;2.80;;;0.30;;
43807;SDS011;29438;50.664;10.098;2023-03-23T03:18:31;1.17;;;0.20;;
43807;SDS011;29438;50.664;10.098;2023-03-23T03:21:06;0.93;;;0.30;;
43807;SDS011;29438;50.664;10.098;2023-03-23T03:23:35;0.95;;;0.30;;
43807;SDS011;29438;50.664;10.098;2023-03-23T03:26:03;1.63;;;0.20;;
43807;SDS011;29438;50.664;10.098;2023-03-23T03:28:29;1.63;;;0.30;;
43807;SDS011;29438;50.664;10.098;2023-03-23T03:30:57;1.23;;;0.30;;
43807;SDS011;29438;50.664;10.098;2023-03-23T03:33:26;1.05;;;0.22;;
43807;SDS011;29438;50.664;10.098;2023-03-23T03:35:56;0.70;;;0.10;;
43807;SDS011;29438;50.664;10.098;2023-03-23T03:38:23;1.02;;;0.20;;
43807;SDS011;29438;50.664;10.098;2023-03-23T03:40:49;1.05;;;0.22;;
43807;SDS011;29438;50.664;10.098;2023-03-23T03:43:16;1.33;;;0.20;;
43807;SDS011;29438;50.664;10.098;2023-03-23T03:45:41;1.15;;;0.20;;
43807;SDS011;29438;50.664;10.098;2023-03-23T03:48:07;1.10;;;0.30;;
43807;SDS011;29438;50.664;10.098;2023-03-23T03:50:32;1.13;;;0.20;;
43807;SDS011;29438;50.664;10.098;2023-03-23T03:52:58;1.65;;;0.20;;
43807;SDS011;29438;50.664;10.098;2023-03-23T03:55:24;0.93;;;0.30;;
43807;SDS011;29438;50.664;10.098;2023-03-23T03:57:50;0.55;;;0.10;;
43807;SDS011;29438;50.664;10.098;2023-03-23T04:00:15;2.17;;;0.10;;
43807;SDS011;29438;50.664;10.098;2023-03-23T04:02:45;0.70;;;0.20;;
43807;SDS011;29438;50.664;10.098;2023-03-23T04:05:16;0.88;;;0.13;;
43807;SDS011;29438;50.664;10.098;2023-03-23T04:07:43;1.13;;;0.20;;
43807;SDS011;29438;50.664;10.098;2023-03-23T04:10:10;0.73;;;0.10;;
43807;SDS011;29438;50.664;10.098;2023-03-23T04:12:38;1.77;;;0.30;;
43807;SDS011;29438;50.664;10.098;2023-03-23T04:15:03;2.17;;;0.30;;
43807;SDS011;29438;50.664;10.098;2023-03-23T04:17:29;1.15;;;0.30;;
43807;SDS011;29438;50.664;10.098;2023-03-23T04:19:55;1.05;;;0.20;;
43807;SDS011;29438;50.664;10.098;2023-03-23T04:22:32;1.63;;;0.35;;
43807;SDS011;29438;50.664;10.098;2023-03-23T04:24:58;1.27;;;0.25;;
43807;SDS011;29438;50.664;10.098;2023-03-23T04:27:27;1.38;;;0.22;;
43807;SDS011;29438;50.664;10.098;2023-03-23T04:29:54;2.28;;;0.40;;
43807;SDS011;29438;50.664;10.098;2023-03-23T04:32:22;2.28;;;0.25;;
43807;SDS011;29438;50.664;10.098;2023-03-23T04:34:49;1.48;;;0.22;;
43807;SDS011;29438;50.664;10.098;2023-03-23T04:37:15;1.33;;;0.30;;
43807;SDS011;29438;50.664;10.098;2023-03-23T04:39:41;2.28;;;0.40;;
43807;SDS011;29438;50.664;10.098;2023-03-23T04:42:10;1.63;;;0.28;;
43807;SDS011;29438;50.664;10.098;2023-03-23T04:44:36;1.40;;;0.30;;
43807;SDS011;29438;50.664;10.098;2023-03-23T04:47:01;3.80;;;0.40;;
43807;SDS011;29438;50.664;10.098;2023-03-23T04:49:27;0.98;;;0.30;;
43807;SDS011;29438;50.664;10.098;2023-03-23T04:51:54;1.95;;;0.32;;
43807;SDS011;29438;50.664;10.098;2023-03-23T04:54:21;1.20;;;0.35;;
43807;SDS011;29438;50.664;10.098;2023-03-23T04:56:47;2.03;;;0.38;;
43807;SDS011;29438;50.664;10.098;2023-03-23T04:59:12;1.92;;;0.40;;
43807;SDS011;29438;50.664;10.098;2023-03-23T05:01:38;1.13;;;0.40;;
43807;SDS011;29438;50.664;10.098;2023-03-23T05:04:05;1.27;;;0.30;;
43807;SDS011;29438;50.664;10.098;2023-03-23T05:06:30;2.15;;;0.50;;
43807;SDS011;29438;50.664;10.098;2023-03-23T05:08:56;1.95;;;0.60;;
43807;SDS011;29438;50.664;10.098;2023-03-23T05:11:21;1.63;;;0.40;;
43807;SDS011;29438;50.664;10.098;2023-03-23T05:13:47;1.55;;;0.40;;
43807;SDS011;29438;50.664;10.098;2023-03-23T05:16:13;1.92;;;0.40;;
43807;SDS011;29438;50.664;10.098;2023-03-23T05:18:38;1.50;;;0.40;;
43807;SDS011;29438;50.664;10.098;2023-03-23T05:21:04;1.60;;;0.50;;
43807;SDS011;29438;50.664;10.098;2023-03-23T05:23:29;1.52;;;0.50;;
43807;SDS011;29438;50.664;10.098;2023-03-23T05:25:58;1.73;;;0.40;;
43807;SDS011;29438;50.664;10.098;2023-03-23T05:28:27;2.42;;;0.60;;
43807;SDS011;29438;50.664;10.098;2023-03-23T05:30:55;1.90;;;0.70;;
43807;SDS011;29438;50.664;10.098;2023-03-23T05:33:21;1.40;;;0.65;;
43807;SDS011;29438;50.664;10.098;2023-03-23T05:35:47;2.30;;;0.60;;
43807;SDS011;29438;50.664;10.098;2023-03-23T05:38:13;2.15;;;0.70;;
43807;SDS011;29438;50.664;10.098;2023-03-23T05:40:39;1.90;;;0.63;;
43807;SDS011;29438;50.664;10.098;2023-03-23T05:43:06;2.17;;;0.70;;
43807;SDS011;29438;50.664;10.098;2023-03-23T05:45:32;1.48;;;0.60;;
43807;SDS011;29438;50.664;10.098;2023-03-23T05:47:58;1.38;;;0.55;;
43807;SDS011;29438;50.664;10.098;2023-03-23T05:50:24;2.15;;;0.75;;
43807;SDS011;29438;50.664;10.098;2023-03-23T05:52:51;1.85;;;0.77;;
43807;SDS011;29438;50.664;10.098;2023-03-23T05:55:16;2.80;;;1.00;;
43807;SDS011;29438;50.664;10.098;2023-03-23T05:57:42;1.90;;;0.70;;
43807;SDS011;29438;50.664;10.098;2023-03-23T06:00:07;2.03;;;0.68;;
43807;SDS011;29438;50.664;10.098;2023-03-23T06:02:45;2.75;;;0.80;;
43807;SDS011;29438;50.664;10.098;2023-03-23T06:05:12;1.60;;;0.75;;
43807;SDS011;29438;50.664;10.098;2023-03-23T06:07:38;2.75;;;0.85;;
43807;SDS011;29438;50.664;10.098;2023-03-23T06:10:07;2.13;;;0.93;;
43807;SDS011;29438;50.664;10.098;2023-03-23T06:12:34;4.70;;;1.00;;
43807;SDS011;29438;50.664;10.098;2023-03-23T06:15:00;3.13;;;0.70;;
43807;SDS011;29438;50.664;10.098;2023-03-23T06:17:26;2.63;;;0.77;;
43807;SDS011;29438;50.664;10.098;2023-03-23T06:19:51;1.83;;;0.60;;
43807;SDS011;29438;50.664;10.098;2023-03-23T06:22:17;1.73;;;0.80;;
43807;SDS011;29438;50.664;10.098;2023-03-23T06:24:43;1.60;;;0.65;;
43807;SDS011;29438;50.664;10.098;2023-03-23T06:27:09;2.33;;;0.63;;
43807;SDS011;29438;50.664;10.098;2023-03-23T06:29:35;2.88;;;0.80;;
43807;SDS011;29438;50.664;10.098;2023-03-23T06:32:02;3.80;;;0.85;;
43807;SDS011;29438;50.664;10.098;2023-03-23T06:34:29;2.42;;;0.88;;
43807;SDS011;29438;50.664;10.098;2023-03-23T06:36:55;2.00;;;0.85;;
43807;SDS011;29438;50.664;10.098;2023-03-23T06:39:21;4.53;;;1.15;;
43807;SDS011;29438;50.664;10.098;2023-03-23T06:41:47;2.30;;;1.23;;
43807;SDS011;29438;50.664;10.098;2023-03-23T06:44:13;2.13;;;0.85;;
43807;SDS011;29438;50.664;10.098;2023-03-23T06:46:39;2.67;;;1.35;;
43807;SDS011;29438;50.664;10.098;2023-03-23T06:49:06;3.08;;;1.70;;
43807;SDS011;29438;50.664;10.098;2023-03-23T06:51:32;3.35;;;0.93;;
43807;SDS011;29438;50.664;10.098;2023-03-23T06:53:58;3.67;;;1.10;;
43807;SDS011;29438;50.664;10.098;2023-03-23T06:56:24;2.42;;;1.13;;
43807;SDS011;29438;50.664;10.098;2023-03-23T06:58:50;2.28;;;0.65;;
43807;SDS011;29438;50.664;10.098;2023-03-23T07:01:16;2.33;;;1.02;;
43807;SDS011;29438;50.664;10.098;2023-03-23T07:03:42;1.50;;;0.60;;
43807;SDS011;29438;50.664;10.098;2023-03-23T07:06:08;3.05;;;0.80;;
43807;SDS011;29438;50.664;10.098;2023-03-23T07:08:34;2.10;;;0.80;;
43807;SDS011;29438;50.664;10.098;2023-03-23T07:11:00;2.17;;;0.70;;
43807;SDS011;29438;50.664;10.098;2023-03-23T07:13:25;1.85;;;0.70;;
43807;SDS011;29438;50.664;10.098;2023-03-23T07:15:51;1.88;;;0.47;;
43807;SDS011;29438;50.664;10.098;2023-03-23T07:18:17;1.27;;;0.52;;
43807;SDS011;29438;50.664;10.098;2023-03-23T07:20:46;1.38;;;0.52;;
43807;SDS011;29438;50.664;10.098;2023-03-23T07:23:16;2.72;;;0.75;;
43807;SDS011;29438;50.664;10.098;2023-03-23T07:25:42;1.55;;;0.70;;
43807;SDS011;29438;50.664;10.098;2023-03-23T07:28:08;2.08;;;1.00;;
43807;SDS011;29438;50.664;10.098;2023-03-23T07:30:34;2.13;;;0.70;;
43807;SDS011;29438;50.664;10.098;2023-03-23T07:33:03;3.05;;;0.70;;
43807;SDS011;29438;50.664;10.098;2023-03-23T07:35:30;1.70;;;0.63;;
43807;SDS011;29438;50.664;10.098;2023-03-23T07:37:55;2.13;;;0.65;;
43807;SDS011;29438;50.664;10.098;2023-03-23T07:40:21;2.60;;;0.93;;
43807;SDS011;29438;50.664;10.098;2023-03-23T07:42:59;2.35;;;0.70;;
43807;SDS011;29438;50.664;10.098;2023-03-23T07:45:26;1.73;;;0.80;;
43807;SDS011;29438;50.664;10.098;2023-03-23T07:47:52;1.38;;;0.43;;
43807;SDS011;29438;50.664;10.098;2023-03-23T07:50:18;2.63;;;1.00;;
43807;SDS011;29438;50.664;10.098;2023-03-23T07:52:47;2.10;;;0.70;;
43807;SDS011;29438;50.664;10.098;2023-03-23T07:55:13;2.35;;;0.90;;
43807;SDS011;29438;50.664;10.098;2023-03-23T07:57:44;1.83;;;0.63;;
43807;SDS011;29438;50.664;10.098;2023-03-23T08:00:12;1.67;;;0.70;;
43807;SDS011;29438;50.664;10.098;2023-03-23T08:02:45;2.17;;;0.65;;
43807;SDS011;29438;50.664;10.098;2023-03-23T08:05:11;1.20;;;0.43;;
43807;SDS011;29438;50.664;10.098;2023-03-23T08:07:38;1.42;;;0.70;;
43807;SDS011;29438;50.664;10.098;2023-03-23T08:10:05;1.40;;;0.60;;
43807;SDS011;29438;50.664;10.098;2023-03-23T08:12:34;1.55;;;0.60;;
43807;SDS011;29438;50.664;10.098;2023-03-23T08:15:00;1.30;;;0.50;;
43807;SDS011;29438;50.664;10.098;2023-03-23T08:17:26;2.22;;;0.88;;
43807;SDS011;29438;50.664;10.098;2023-03-23T08:19:52;2.03;;;0.68;;
43807;SDS011;29438;50.664;10.098;2023-03-23T08:22:17;1.92;;;0.40;;
43807;SDS011;29438;50.664;10.098;2023-03-23T08:24:43;2.15;;;0.52;;
43807;SDS011;29438;50.664;10.098;2023-03-23T08:27:08;1.45;;;0.40;;
43807;SDS011;29438;50.664;10.098;2023-03-23T08:29:34;1.52;;;0.45;;
43807;SDS011;29438;50.664;10.098;2023-03-23T08:32:00;1.88;;;0.70;;
43807;SDS011;29438;50.664;10.098;2023-03-23T08:34:27;2.13;;;0.63;;
43807;SDS011;29438;50.664;10.098;2023-03-23T08:36:53;1.67;;;0.70;;
43807;SDS011;29438;50.664;10.098;2023-03-23T08:39:20;1.85;;;0.50;;
43807;SDS011;29438;50.664;10.098;2023-03-23T08:41:47;1.30;;;0.40;;
43807;SDS011;29438;50.664;10.098;2023-03-23T08:44:13;1.25;;;0.50;;
43807;SDS011;29438;50.664;10.098;2023-03-23T08:46:39;2.35;;;0.65;;
43807;SDS011;29438;50.664;10.098;2023-03-23T08:49:05;2.33;;;0.60;;
43807;SDS011;29438;50.664;10.098;2023-03-23T08:51:31;1.80;;;0.40;;
43807;SDS011;29438;50.664;10.098;2023-03-23T08:53:56;2.85;;;0.60;;
43807;SDS011;29438;50.664;10.098;2023-03-23T08:56:22;1.30;;;0.50;;
43807;SDS011;29438;50.664;10.098;2023-03-23T08:58:48;3.72;;;0.50;;
43807;SDS011;29438;50.664;10.098;2023-03-23T09:01:13;2.60;;;0.52;;
43807;SDS011;29438;50.664;10.098;2023-03-23T09:03:40;1.38;;;0.50;;
43807;SDS011;29438;50.664;10.098;2023-03-23T09:06:06;1.33;;;0.65;;
43807;SDS011;29438;50.664;10.098;2023-03-23T09:08:34;1.92;;;0.80;;
43807;SDS011;29438;50.664;10.098;2023-03-23T09:11:04;1.88;;;0.55;;
43807;SDS011;29438;50.664;10.098;2023-03-23T09:13:32;1.50;;;0.50;;
43807;SDS011;29438;50.664;10.098;2023-03-23T09:15:58;1.55;;;0.43;;
43807;SDS011;29438;50.664;10.098;2023-03-23T09:18:23;1.15;;;0.40;;
43807;SDS011;29438;50.664;10.098;2023-03-23T09:20:49;1.48;;;0.50;;
43807;SDS011;29438;50.664;10.098;2023-03-23T09:23:16;1.55;;;0.40;;
43807;SDS011;29438;50.664;10.098;2023-03-23T09:25:42;1.00;;;0.40;;
43807;SDS011;29438;50.664;10.098;2023-03-23T09:28:08;1.23;;;0.47;;
43807;SDS011;29438;50.664;10.098;2023-03-23T09:30:34;1.48;;;0.50;;
43807;SDS011;29438;50.664;10.098;2023-03-23T09:33:01;1.52;;;0.55;;
43807;SDS011;29438;50.664;10.098;2023-03-23T09:35:29;1.00;;;0.38;;
43807;SDS011;29438;50.664;10.098;2023-03-23T09:37:56;2.03;;;0.47;;
43807;SDS011;29438;50.664;10.098;2023-03-23T09:40:26;1.23;;;0.47;;
43807;SDS011;29438;50.664;10.098;2023-03-23T09:46:21;1.42;;;0.52;;
43807;SDS011;29438;50.664;10.098;2023-03-23T09:49:11;1.20;;;0.40;;
43807;SDS011;29438;50.664;10.098;2023-03-23T09:51:44;1.73;;;0.57;;
43807;SDS011;29438;50.664;10.098;2023-03-23T09:54:20;2.30;;;0.50;;
43807;SDS011;29438;50.664;10.098;2023-03-23T09:56:47;1.48;;;0.60;;
43807;SDS011;29438;50.664;10.098;2023-03-23T10:02:24;1.30;;;0.50;;
43807;SDS011;29438;50.664;10.098;2023-03-23T10:05:48;1.05;;;0.32;;
43807;SDS011;29438;50.664;10.098;2023-03-23T10:07:59;1.50;;;0.30;;
43807;SDS011;29438;50.664;10.098;2023-03-23T10:10:44;1.30;;;0.50;;
43807;SDS011;29438;50.664;10.098;2023-03-23T10:13:20;2.05;;;0.40;;
43807;SDS011;29438;50.664;10.098;2023-03-23T10:15:54;1.48;;;0.50;;
43807;SDS011;29438;50.664;10.098;2023-03-23T10:18:24;2.03;;;0.52;;
43807;SDS011;29438;50.664;10.098;2023-03-23T10:21:11;1.85;;;0.50;;
43807;SDS011;29438;50.664;10.098;2023-03-23T10:23:44;2.08;;;0.63;;
43807;SDS011;29438;50.664;10.098;2023-03-23T10:28:43;2.13;;;0.50;;
43807;SDS011;29438;50.664;10.098;2023-03-23T10:31:13;1.67;;;0.60;;
43807;SDS011;29438;50.664;10.098;2023-03-23T10:33:45;1.25;;;0.40;;
43807;SDS011;29438;50.664;10.098;2023-03-23T10:36:18;1.45;;;0.65;;
43807;SDS011;29438;50.664;10.098;2023-03-23T10:38:50;1.35;;;0.40;;
43807;SDS011;29438;50.664;10.098;2023-03-23T10:41:30;1.50;;;0.68;;
43807;SDS011;29438;50.664;10.098;2023-03-23T10:43:56;1.30;;;0.68;;
43807;SDS011;29438;50.664;10.098;2023-03-23T10:46:26;1.30;;;0.50;;
43807;SDS011;29438;50.664;10.098;2023-03-23T10:49:06;1.73;;;0.77;;
43807;SDS011;29438;50.664;10.098;2023-03-23T10:51:37;2.03;;;0.95;;
43807;SDS011;29438;50.664;10.098;2023-03-23T10:54:07;3.60;;;0.85;;
43807;SDS011;29438;50.664;10.098;2023-03-23T10:56:40;2.38;;;0.80;;
43807;SDS011;29438;50.664;10.098;2023-03-23T10:59:19;1.85;;;0.88;;
43807;SDS011;29438;50.664;10.098;2023-03-23T11:01:52;2.65;;;0.88;;
43807;SDS011;29438;50.664;10.098;2023-03-23T11:04:19;2.83;;;1.00;;
43807;SDS011;29438;50.664;10.098;2023-03-23T11:06:54;2.22;;;0.90;;
43807;SDS011;29438;50.664;10.098;2023-03-23T11:09:39;1.42;;;0.70;;
43807;SDS011;29438;50.664;10.098;2023-03-23T11:12:19;1.77;;;0.90;;
43807;SDS011;29438;50.664;10.098;2023-03-23T11:14:45;2.10;;;0.80;;
43807;SDS011;29438;50.664;10.098;2023-03-23T11:17:21;2.67;;;1.02;;
43807;SDS011;29438;50.664;10.098;2023-03-23T11:19:49;2.22;;;0.90;;
43807;SDS011;29438;50.664;10.098;2023-03-23T11:22:18;2.08;;;0.80;;
43807;SDS011;29438;50.664;10.098;2023-03-23T11:27:17;2.25;;;0.60;;
43807;SDS011;29438;50.664;10.098;2023-03-23T11:32:24;2.00;;;0.70;;
43807;SDS011;29438;50.664;10.098;2023-03-23T11:34:59;1.40;;;0.52;;
43807;SDS011;29438;50.664;10.098;2023-03-23T11:40:02;1.98;;;0.70;;
43807;SDS011;29438;50.664;10.098;2023-03-23T11:42:36;1.27;;;0.60;;
43807;SDS011;29438;50.664;10.098;2023-03-23T11:47:50;3.38;;;0.70;;
43807;SDS011;29438;50.664;10.098;2023-03-23T11:50:44;1.50;;;0.80;;
43807;SDS011;29438;50.664;10.098;2023-03-23T11:53:22;1.63;;;0.60;;
43807;SDS011;29438;50.664;10.098;2023-03-23T11:58:29;2.70;;;0.70;;
43807;SDS011;29438;50.664;10.098;2023-03-23T12:00:58;1.60;;;0.45;;
43807;SDS011;29438;50.664;10.098;2023-03-23T12:03:41;3.67;;;1.30;;
43807;SDS011;29438;50.664;10.098;2023-03-23T12:06:22;1.65;;;0.50;;
43807;SDS011;29438;50.664;10.098;2023-03-23T12:09:06;1.60;;;0.73;;
43807;SDS011;29438;50.664;10.098;2023-03-23T12:12:13;2.55;;;0.65;;
43807;SDS011;29438;50.664;10.098;2023-03-23T12:23:09;1.42;;;0.28;;
43807;SDS011;29438;50.664;10.098;2023-03-23T12:26:28;1.27;;;0.40;;
43807;SDS011;29438;50.664;10.098;2023-03-23T12:29:06;2.05;;;0.70;;
43807;SDS011;29438;50.664;10.098;2023-03-23T12:32:02;2.42;;;0.40;;
43807;SDS011;29438;50.664;10.098;2023-03-23T12:37:45;0.93;;;0.40;;
43807;SDS011;29438;50.664;10.098;2023-03-23T12:43:13;1.63;;;0.30;;
43807;SDS011;29438;50.664;10.098;2023-03-23T12:45:50;1.20;;;0.30;;
43807;SDS011;29438;50.664;10.098;2023-03-23T12:48:31;0.75;;;0.25;;
43807;SDS011;29438;50.664;10.098;2023-03-23T12:53:33;1.23;;;0.30;;
43807;SDS011;29438;50.664;10.098;2023-03-23T12:58:43;2.55;;;0.50;;
43807;SDS011;29438;50.664;10.098;2023-03-23T13:01:29;1.73;;;0.40;;
43807;SDS011;29438;50.664;10.098;2023-03-23T13:04:00;0.70;;;0.20;;
43807;SDS011;29438;50.664;10.098;2023-03-23T13:06:34;1.13;;;0.45;;
43807;SDS011;29438;50.664;10.098;2023-03-23T13:09:07;0.80;;;0.30;;
43807;SDS011;29438;50.664;10.098;2023-03-23T13:11:43;1.35;;;0.40;;
43807;SDS011;29438;50.664;10.098;2023-03-23T13:17:02;2.15;;;0.40;;
43807;SDS011;29438;50.664;10.098;2023-03-23T13:20:01;0.82;;;0.38;;
43807;SDS011;29438;50.664;10.098;2023-03-23T13:22:48;0.80;;;0.35;;
43807;SDS011;29438;50.664;10.098;2023-03-23T13:25:37;0.90;;;0.20;;
43807;SDS011;29438;50.664;10.098;2023-03-23T13:28:17;1.00;;;0.28;;
43807;SDS011;29438;50.664;10.098;2023-03-23T13:30:54;1.17;;;0.35;;
43807;SDS011;29438;50.664;10.098;2023-03-23T13:33:22;1.17;;;0.30;;
43807;SDS011;29438;50.664;10.098;2023-03-23T13:35:48;1.45;;;0.35;;
43807;SDS011;29438;50.664;10.098;2023-03-23T13:38:26;1.48;;;0.40;;
43807;SDS011;29438;50.664;10.098;2023-03-23T13:40:53;1.52;;;0.30;;
43807;SDS011;29438;50.664;10.098;2023-03-23T13:43:31;1.50;;;0.45;;
43807;SDS011;29438;50.664;10.098;2023-03-23T13:54:12;1.40;;;0.55;;
43807;SDS011;29438;50.664;10.098;2023-03-23T13:56:43;1.83;;;0.60;;
43807;SDS011;29438;50.664;10.098;2023-03-23T14:01:52;1.10;;;0.25;;
43807;SDS011;29438;50.664;10.098;2023-03-23T14:04:23;2.65;;;0.85;;
43807;SDS011;29438;50.664;10.098;2023-03-23T14:06:57;1.02;;;0.40;;
43807;SDS011;29438;50.664;10.098;2023-03-23T14:09:39;1.80;;;0.40;;
43807;SDS011;29438;50.664;10.098;2023-03-23T14:12:21;1.55;;;0.60;;
43807;SDS011;29438;50.664;10.098;2023-03-23T14:14:55;0.90;;;0.30;;
43807;SDS011;29438;50.664;10.098;2023-03-23T14:17:30;1.05;;;0.30;;
43807;SDS011;29438;50.664;10.098;2023-03-23T14:19:58;1.65;;;0.50;;
43807;SDS011;29438;50.664;10.098;2023-03-23T14:22:27;0.50;;;0.13;;
43807;SDS011;29438;50.664;10.098;2023-03-23T14:25:16;0.82;;;0.30;;
43807;SDS011;29438;50.664;10.098;2023-03-23T14:27:43;0.50;;;0.20;;
43807;SDS011;29438;50.664;10.098;2023-03-23T14:30:18;0.95;;;0.30;;
43807;SDS011;29438;50.664;10.098;2023-03-23T14:32:46;1.38;;;0.20;;
43807;SDS011;29438;50.664;10.098;2023-03-23T14:35:27;0.80;;;0.20;;
43807;SDS011;29438;50.664;10.098;2023-03-23T14:37:57;1.27;;;0.20;;
43807;SDS011;29438;50.664;10.098;2023-03-23T14:40:23;2.30;;;0.20;;
43807;SDS011;29438;50.664;10.098;2023-03-23T14:42:52;1.15;;;0.20;;
43807;SDS011;29438;50.664;10.098;2023-03-23T14:45:19;0.73;;;0.20;;
43807;SDS011;29438;50.664;10.098;2023-03-23T14:47:47;1.13;;;0.15;;
43807;SDS011;29438;50.664;10.098;2023-03-23T14:50:23;0.80;;;0.30;;
43807;SDS011;29438;50.664;10.098;2023-03-23T14:52:58;0.68;;;0.20;;
43807;SDS011;29438;50.664;10.098;2023-03-23T14:55:26;0.60;;;0.25;;
43807;SDS011;29438;50.664;10.098;2023-03-23T14:57:55;0.80;;;0.30;;
43807;SDS011;29438;50.664;10.098;2023-03-23T15:00:31;0.65;;;0.15;;
43807;SDS011;29438;50.664;10.098;2023-03-23T15:03:01;1.25;;;0.50;;
43807;SDS011;29438;50.664;10.098;2023-03-23T15:05:30;0.90;;;0.22;;
43807;SDS011;29438;50.664;10.098;2023-03-23T15:08:02;0.70;;;0.30;;
43807;SDS011;29438;50.664;10.098;2023-03-23T15:10:30;1.67;;;0.70;;
43807;SDS011;29438;50.664;10.098;2023-03-23T15:12:56;1.20;;;0.40;;
43807;SDS011;29438;50.664;10.098;2023-03-23T15:15:30;1.45;;;0.30;;
43807;SDS011;29438;50.664;10.098;2023-03-23T15:17:57;0.90;;;0.30;;
43807;SDS011;29438;50.664;10.098;2023-03-23T15:20:28;0.65;;;0.20;;
43807;SDS011;29438;50.664;10.098;2023-03-23T15:22:54;0.80;;;0.30;;
43807;SDS011;29438;50.664;10.098;2023-03-23T15:25:21;1.15;;;0.30;;
43807;SDS011;29438;50.664;10.098;2023-03-23T15:27:55;1.48;;;0.32;;
43807;SDS011;29438;50.664;10.098;2023-03-23T15:32:49;3.83;;;0.32;;
43807;SDS011;29438;50.664;10.098;2023-03-23T15:35:26;2.72;;;0.88;;
43807;SDS011;29438;50.664;10.098;2023-03-23T15:37:53;2.95;;;1.02;;
43807;SDS011;29438;50.664;10.098;2023-03-23T15:40:22;1.40;;;0.57;;
43807;SDS011;29438;50.664;10.098;2023-03-23T15:42:50;2.35;;;1.02;;
43807;SDS011;29438;50.664;10.098;2023-03-23T15:45:56;2.30;;;0.90;;
43807;SDS011;29438;50.664;10.098;2023-03-23T15:48:25;1.48;;;0.35;;
43807;SDS011;29438;50.664;10.098;2023-03-23T15:50:51;1.65;;;0.68;;
43807;SDS011;29438;50.664;10.098;2023-03-23T15:53:28;4.55;;;1.30;;
43807;SDS011;29438;50.664;10.098;2023-03-23T15:56:03;1.90;;;0.90;;
43807;SDS011;29438;50.664;10.098;2023-03-23T15:58:31;3.38;;;0.73;;
43807;SDS011;29438;50.664;10.098;2023-03-23T16:00:57;0.90;;;0.32;;
43807;SDS011;29438;50.664;10.098;2023-03-23T16:03:26;1.45;;;0.50;;
43807;SDS011;29438;50.664;10.098;2023-03-23T16:05:56;2.05;;;0.40;;